Airfield :
LOGIN :

Register | Disclaimer

   EN    FR    IT 

 










Legend :    VFR   Marginal VFR   IFR   Intensive IFR   Very Intensive IFR
Visi :
Ceiling :
>= 8 km
>= 3000ft
5 to 8 km
1000 to 3000 ft
1500m to 5 km
500 to 1000 ft
800 to 1500m
200 to 500 ft
< 800m
< 200 ft
Symbols :   Thunderstorms  Fog  Heavy snow  Heavy precipitations  Wind > 20 kt
SIGMETs :     Misc.  Thunderstorms  Icing  Turbulence  Mountain Waves  Volcanic Ashes






- Airport Elevation : 425 ft
- IATA code : DTM


EDLW - Dortmund

CURRENT METAR :
  • 191920Z 30005KT 9999 FEW038 02/01 Q1043

EXPIRED METARs :
  • 191850Z 29004KT CAVOK 03/01 Q1042
  • 191820Z 30005KT CAVOK 03/02 Q1042
  • 191750Z 30005KT 9999 FEW027 04/02 Q1042
  • 191720Z 31005KT 9999 FEW030 OVC049 05/03 Q1041
  • 191650Z 32004KT CAVOK 04/03 Q1041

TAF TAF EDLW
Valid from the 19 at 18:00 until the 20 at 18:00 UTC


191700Z 1918/2018 VRB03KT 9999 BKN035
BECMG 2001/2005 4000 BR BKN008
TEMPO 2004/2012 2000 BR BKN003
PROB30
TEMPO 2006/2011 0500 FG BKN001
BECMG 2011/2014 7000 SCT008



MET'MAP, your aeronautical weather chart ! - Copyright ORBIFLY December 2007 - Disclaimer

ORBIFLY MET'MAP TEAM :

Programming & Development : Alexandra Zaïnal
Concept & original design : Baudouin d'Aumeries
Assistance for programming : Marc-Olivier Méhu
Technical & hardware support : Manuel Goepfert

Contact : metmap@orbifly.com




SOURCES & CREDITS :

   NOAA